sensor_id;sensor_type;location;lat;lon;timestamp;temperature;humidity
52621;DHT22;38515;53.160;6.990;2024-02-15T00:00:13;11.50;99.90
52621;DHT22;38515;53.160;6.990;2024-02-15T00:02:43;11.30;99.90
52621;DHT22;38515;53.160;6.990;2024-02-15T00:05:10;11.50;99.90
52621;DHT22;38515;53.160;6.990;2024-02-15T00:07:36;11.30;99.90
52621;DHT22;38515;53.160;6.990;2024-02-15T00:10:02;11.50;99.90
52621;DHT22;38515;53.160;6.990;2024-02-15T00:12:30;11.30;99.90
52621;DHT22;38515;53.160;6.990;2024-02-15T00:14:56;11.30;99.90
52621;DHT22;38515;53.160;6.990;2024-02-15T00:17:25;11.50;99.90
52621;DHT22;38515;53.160;6.990;2024-02-15T00:19:51;11.30;99.90
52621;DHT22;38515;53.160;6.990;2024-02-15T00:22:17;12.20;99.90
52621;DHT22;38515;53.160;6.990;2024-02-15T00:24:44;11.30;99.90
52621;DHT22;38515;53.160;6.990;2024-02-15T00:27:10;11.50;99.90
52621;DHT22;38515;53.160;6.990;2024-02-15T00:29:36;11.30;99.90
52621;DHT22;38515;53.160;6.990;2024-02-15T00:32:02;12.30;99.90
52621;DHT22;38515;53.160;6.990;2024-02-15T00:34:29;11.40;99.90
52621;DHT22;38515;53.160;6.990;2024-02-15T00:36:54;11.60;99.90
52621;DHT22;38515;53.160;6.990;2024-02-15T00:39:21;11.60;99.90
52621;DHT22;38515;53.160;6.990;2024-02-15T00:41:47;11.50;99.90
52621;DHT22;38515;53.160;6.990;2024-02-15T00:44:14;11.40;99.90
52621;DHT22;38515;53.160;6.990;2024-02-15T00:46:39;12.40;99.90
52621;DHT22;38515;53.160;6.990;2024-02-15T00:49:07;11.30;99.90
52621;DHT22;38515;53.160;6.990;2024-02-15T00:51:33;11.50;99.90
52621;DHT22;38515;53.160;6.990;2024-02-15T00:54:02;11.40;99.90
52621;DHT22;38515;53.160;6.990;2024-02-15T00:56:28;11.40;99.90
52621;DHT22;38515;53.160;6.990;2024-02-15T00:59:01;11.50;99.90
52621;DHT22;38515;53.160;6.990;2024-02-15T01:01:26;11.50;99.90
52621;DHT22;38515;53.160;6.990;2024-02-15T01:03:52;11.30;99.90
52621;DHT22;38515;53.160;6.990;2024-02-15T01:06:18;12.20;99.90
52621;DHT22;38515;53.160;6.990;2024-02-15T01:08:44;11.30;99.90
52621;DHT22;38515;53.160;6.990;2024-02-15T01:11:10;11.30;99.90
52621;DHT22;38515;53.160;6.990;2024-02-15T01:13:36;11.40;99.90
52621;DHT22;38515;53.160;6.990;2024-02-15T01:16:01;11.40;99.90
52621;DHT22;38515;53.160;6.990;2024-02-15T01:18:30;11.30;99.90
52621;DHT22;38515;53.160;6.990;2024-02-15T01:20:57;11.40;99.90
52621;DHT22;38515;53.160;6.990;2024-02-15T01:23:23;11.50;99.90
52621;DHT22;38515;53.160;6.990;2024-02-15T01:25:49;11.30;99.90
52621;DHT22;38515;53.160;6.990;2024-02-15T01:28:14;11.60;99.90
52621;DHT22;38515;53.160;6.990;2024-02-15T01:30:40;11.50;99.90
52621;DHT22;38515;53.160;6.990;2024-02-15T01:33:09;11.30;99.90
52621;DHT22;38515;53.160;6.990;2024-02-15T01:35:36;11.30;99.90
52621;DHT22;38515;53.160;6.990;2024-02-15T01:38:02;11.50;99.90
52621;DHT22;38515;53.160;6.990;2024-02-15T01:40:28;11.30;99.90
52621;DHT22;38515;53.160;6.990;2024-02-15T01:42:54;11.30;99.90
52621;DHT22;38515;53.160;6.990;2024-02-15T01:45:20;11.40;99.90
52621;DHT22;38515;53.160;6.990;2024-02-15T01:47:48;11.30;99.90
52621;DHT22;38515;53.160;6.990;2024-02-15T01:50:15;11.50;99.90
52621;DHT22;38515;53.160;6.990;2024-02-15T01:52:43;11.30;99.90
52621;DHT22;38515;53.160;6.990;2024-02-15T01:55:16;11.40;99.90
52621;DHT22;38515;53.160;6.990;2024-02-15T01:57:48;11.40;99.90
52621;DHT22;38515;53.160;6.990;2024-02-15T02:00:18;11.40;99.90
52621;DHT22;38515;53.160;6.990;2024-02-15T02:02:45;11.40;99.90
52621;DHT22;38515;53.160;6.990;2024-02-15T02:05:12;11.30;99.90
52621;DHT22;38515;53.160;6.990;2024-02-15T02:07:38;11.50;99.90
52621;DHT22;38515;53.160;6.990;2024-02-15T02:10:04;11.40;99.90
52621;DHT22;38515;53.160;6.990;2024-02-15T02:12:31;11.40;99.90
52621;DHT22;38515;53.160;6.990;2024-02-15T02:14:57;11.50;99.90
52621;DHT22;38515;53.160;6.990;2024-02-15T02:17:22;11.30;99.90
52621;DHT22;38515;53.160;6.990;2024-02-15T02:19:49;11.40;99.90
52621;DHT22;38515;53.160;6.990;2024-02-15T02:22:16;11.40;99.90
52621;DHT22;38515;53.160;6.990;2024-02-15T02:25:03;11.30;99.90
52621;DHT22;38515;53.160;6.990;2024-02-15T02:27:32;11.40;99.90
52621;DHT22;38515;53.160;6.990;2024-02-15T02:29:58;11.50;99.90
52621;DHT22;38515;53.160;6.990;2024-02-15T02:32:25;11.30;99.90
52621;DHT22;38515;53.160;6.990;2024-02-15T02:34:52;11.30;99.90
52621;DHT22;38515;53.160;6.990;2024-02-15T02:37:26;11.50;99.90
52621;DHT22;38515;53.160;6.990;2024-02-15T02:39:52;11.40;99.90
52621;DHT22;38515;53.160;6.990;2024-02-15T02:42:18;11.50;99.90
52621;DHT22;38515;53.160;6.990;2024-02-15T02:44:44;11.40;99.90
52621;DHT22;38515;53.160;6.990;2024-02-15T02:47:10;11.40;99.90
52621;DHT22;38515;53.160;6.990;2024-02-15T02:49:36;11.40;99.90
52621;DHT22;38515;53.160;6.990;2024-02-15T02:52:02;11.50;99.90
52621;DHT22;38515;53.160;6.990;2024-02-15T02:54:28;11.40;99.90
52621;DHT22;38515;53.160;6.990;2024-02-15T02:56:54;11.50;99.90
52621;DHT22;38515;53.160;6.990;2024-02-15T02:59:20;11.40;99.90
52621;DHT22;38515;53.160;6.990;2024-02-15T03:01:47;12.30;99.90
52621;DHT22;38515;53.160;6.990;2024-02-15T03:04:15;11.50;99.90
52621;DHT22;38515;53.160;6.990;2024-02-15T03:06:43;11.40;99.90
52621;DHT22;38515;53.160;6.990;2024-02-15T03:09:09;11.40;99.90
52621;DHT22;38515;53.160;6.990;2024-02-15T03:11:36;11.60;99.90
52621;DHT22;38515;53.160;6.990;2024-02-15T03:14:02;11.50;99.90
52621;DHT22;38515;53.160;6.990;2024-02-15T03:16:31;11.50;99.90
52621;DHT22;38515;53.160;6.990;2024-02-15T03:18:56;11.80;99.90
52621;DHT22;38515;53.160;6.990;2024-02-15T03:21:22;11.50;99.90
52621;DHT22;38515;53.160;6.990;2024-02-15T03:23:48;11.40;99.90
52621;DHT22;38515;53.160;6.990;2024-02-15T03:26:13;11.50;99.90
52621;DHT22;38515;53.160;6.990;2024-02-15T03:28:39;11.40;99.90
52621;DHT22;38515;53.160;6.990;2024-02-15T03:31:05;11.30;99.90
52621;DHT22;38515;53.160;6.990;2024-02-15T03:33:31;11.40;99.90
52621;DHT22;38515;53.160;6.990;2024-02-15T03:35:59;11.40;99.90
52621;DHT22;38515;53.160;6.990;2024-02-15T03:38:26;11.40;99.90
52621;DHT22;38515;53.160;6.990;2024-02-15T03:40:55;11.50;99.90
52621;DHT22;38515;53.160;6.990;2024-02-15T03:43:20;11.40;99.90
52621;DHT22;38515;53.160;6.990;2024-02-15T03:45:46;11.50;99.90
52621;DHT22;38515;53.160;6.990;2024-02-15T03:48:12;11.50;99.90
52621;DHT22;38515;53.160;6.990;2024-02-15T03:50:38;11.40;99.90
52621;DHT22;38515;53.160;6.990;2024-02-15T03:53:04;11.50;99.90
52621;DHT22;38515;53.160;6.990;2024-02-15T03:55:30;11.50;99.90
52621;DHT22;38515;53.160;6.990;2024-02-15T03:57:55;11.50;99.90
52621;DHT22;38515;53.160;6.990;2024-02-15T04:00:23;11.50;99.90
52621;DHT22;38515;53.160;6.990;2024-02-15T04:02:50;11.30;99.90
52621;DHT22;38515;53.160;6.990;2024-02-15T04:05:16;11.60;99.90
52621;DHT22;38515;53.160;6.990;2024-02-15T04:07:46;11.50;99.90
52621;DHT22;38515;53.160;6.990;2024-02-15T04:10:13;11.30;99.90
52621;DHT22;38515;53.160;6.990;2024-02-15T04:12:39;11.40;99.90
52621;DHT22;38515;53.160;6.990;2024-02-15T04:15:07;11.50;99.90
52621;DHT22;38515;53.160;6.990;2024-02-15T04:17:38;11.50;99.90
52621;DHT22;38515;53.160;6.990;2024-02-15T04:20:04;11.60;99.90
52621;DHT22;38515;53.160;6.990;2024-02-15T04:22:32;11.40;99.90
52621;DHT22;38515;53.160;6.990;2024-02-15T04:25:05;11.40;99.90
52621;DHT22;38515;53.160;6.990;2024-02-15T04:27:32;11.40;99.90
52621;DHT22;38515;53.160;6.990;2024-02-15T04:29:58;11.60;99.90
52621;DHT22;38515;53.160;6.990;2024-02-15T04:32:23;11.60;99.90
52621;DHT22;38515;53.160;6.990;2024-02-15T04:34:49;11.60;99.90
52621;DHT22;38515;53.160;6.990;2024-02-15T04:37:15;11.60;99.90
52621;DHT22;38515;53.160;6.990;2024-02-15T04:39:42;11.60;99.90
52621;DHT22;38515;53.160;6.990;2024-02-15T04:42:08;11.70;99.90
52621;DHT22;38515;53.160;6.990;2024-02-15T04:44:38;11.50;99.90
52621;DHT22;38515;53.160;6.990;2024-02-15T04:47:05;11.60;99.90
52621;DHT22;38515;53.160;6.990;2024-02-15T04:49:30;11.60;99.90
52621;DHT22;38515;53.160;6.990;2024-02-15T04:51:56;11.50;99.90
52621;DHT22;38515;53.160;6.990;2024-02-15T04:54:23;11.50;99.90
52621;DHT22;38515;53.160;6.990;2024-02-15T04:56:48;11.50;99.90
52621;DHT22;38515;53.160;6.990;2024-02-15T04:59:18;11.60;99.90
52621;DHT22;38515;53.160;6.990;2024-02-15T05:01:45;11.60;99.90
52621;DHT22;38515;53.160;6.990;2024-02-15T05:04:11;11.60;99.90
52621;DHT22;38515;53.160;6.990;2024-02-15T05:06:38;11.80;99.90
52621;DHT22;38515;53.160;6.990;2024-02-15T05:09:04;11.70;99.90
52621;DHT22;38515;53.160;6.990;2024-02-15T05:11:39;11.60;99.90
52621;DHT22;38515;53.160;6.990;2024-02-15T05:14:13;11.80;99.90
52621;DHT22;38515;53.160;6.990;2024-02-15T05:16:45;11.70;99.90
52621;DHT22;38515;53.160;6.990;2024-02-15T05:19:16;12.60;99.90
52621;DHT22;38515;53.160;6.990;2024-02-15T05:21:46;11.70;99.90
52621;DHT22;38515;53.160;6.990;2024-02-15T05:24:14;11.80;99.90
52621;DHT22;38515;53.160;6.990;2024-02-15T05:26:40;11.60;99.90
52621;DHT22;38515;53.160;6.990;2024-02-15T05:29:08;11.80;99.90
52621;DHT22;38515;53.160;6.990;2024-02-15T05:31:35;11.80;99.90
52621;DHT22;38515;53.160;6.990;2024-02-15T05:34:04;12.40;99.90
52621;DHT22;38515;53.160;6.990;2024-02-15T05:36:30;11.80;99.90
52621;DHT22;38515;53.160;6.990;2024-02-15T05:38:56;11.90;99.90
52621;DHT22;38515;53.160;6.990;2024-02-15T05:41:23;11.80;99.90
52621;DHT22;38515;53.160;6.990;2024-02-15T05:43:50;11.90;99.90
52621;DHT22;38515;53.160;6.990;2024-02-15T05:46:19;11.70;99.90
52621;DHT22;38515;53.160;6.990;2024-02-15T05:48:48;11.70;99.90
52621;DHT22;38515;53.160;6.990;2024-02-15T05:51:14;11.80;99.90
52621;DHT22;38515;53.160;6.990;2024-02-15T05:53:41;11.70;99.90
52621;DHT22;38515;53.160;6.990;2024-02-15T05:56:08;11.90;99.90
52621;DHT22;38515;53.160;6.990;2024-02-15T05:58:34;11.90;99.90
52621;DHT22;38515;53.160;6.990;2024-02-15T06:01:02;11.90;99.90
52621;DHT22;38515;53.160;6.990;2024-02-15T06:03:28;11.80;99.90
52621;DHT22;38515;53.160;6.990;2024-02-15T06:05:54;11.90;99.90
52621;DHT22;38515;53.160;6.990;2024-02-15T06:08:29;11.80;99.90
52621;DHT22;38515;53.160;6.990;2024-02-15T06:10:55;11.80;99.90
52621;DHT22;38515;53.160;6.990;2024-02-15T06:13:22;11.80;99.90
52621;DHT22;38515;53.160;6.990;2024-02-15T06:15:48;11.80;99.90
52621;DHT22;38515;53.160;6.990;2024-02-15T06:18:25;11.70;99.90
52621;DHT22;38515;53.160;6.990;2024-02-15T06:20:53;11.80;99.90
52621;DHT22;38515;53.160;6.990;2024-02-15T06:23:19;12.40;99.90
52621;DHT22;38515;53.160;6.990;2024-02-15T06:25:51;11.80;99.90
52621;DHT22;38515;53.160;6.990;2024-02-15T06:28:18;12.20;99.90
52621;DHT22;38515;53.160;6.990;2024-02-15T06:31:03;11.90;99.90
52621;DHT22;38515;53.160;6.990;2024-02-15T06:33:48;11.90;99.90
52621;DHT22;38515;53.160;6.990;2024-02-15T06:36:32;11.80;99.90
52621;DHT22;38515;53.160;6.990;2024-02-15T06:39:16;11.90;99.90
52621;DHT22;38515;53.160;6.990;2024-02-15T06:42:00;11.80;99.90
52621;DHT22;38515;53.160;6.990;2024-02-15T06:44:27;11.80;99.90
52621;DHT22;38515;53.160;6.990;2024-02-15T06:46:52;11.80;99.90
52621;DHT22;38515;53.160;6.990;2024-02-15T06:49:18;11.80;99.90
52621;DHT22;38515;53.160;6.990;2024-02-15T06:51:44;11.80;99.90
52621;DHT22;38515;53.160;6.990;2024-02-15T06:54:13;11.90;99.90
52621;DHT22;38515;53.160;6.990;2024-02-15T06:56:38;12.60;99.90
52621;DHT22;38515;53.160;6.990;2024-02-15T06:59:05;11.80;99.90
52621;DHT22;38515;53.160;6.990;2024-02-15T07:01:31;12.60;99.90
52621;DHT22;38515;53.160;6.990;2024-02-15T07:03:59;11.80;99.90
52621;DHT22;38515;53.160;6.990;2024-02-15T07:06:25;11.80;99.90
52621;DHT22;38515;53.160;6.990;2024-02-15T07:08:52;12.10;99.90
52621;DHT22;38515;53.160;6.990;2024-02-15T07:11:20;11.90;99.90
52621;DHT22;38515;53.160;6.990;2024-02-15T07:13:47;11.80;99.90
52621;DHT22;38515;53.160;6.990;2024-02-15T07:16:13;11.80;99.90
52621;DHT22;38515;53.160;6.990;2024-02-15T07:18:41;11.90;99.90
52621;DHT22;38515;53.160;6.990;2024-02-15T07:21:06;11.90;99.90
52621;DHT22;38515;53.160;6.990;2024-02-15T07:23:36;11.80;99.90
52621;DHT22;38515;53.160;6.990;2024-02-15T07:26:02;11.80;99.90
52621;DHT22;38515;53.160;6.990;2024-02-15T07:28:29;11.90;99.90
52621;DHT22;38515;53.160;6.990;2024-02-15T07:30:57;12.00;99.90
52621;DHT22;38515;53.160;6.990;2024-02-15T07:33:23;11.80;99.90
52621;DHT22;38515;53.160;6.990;2024-02-15T07:35:49;11.90;99.90
52621;DHT22;38515;53.160;6.990;2024-02-15T07:38:18;11.90;99.90
52621;DHT22;38515;53.160;6.990;2024-02-15T07:40:44;12.00;99.90
52621;DHT22;38515;53.160;6.990;2024-02-15T07:43:10;11.90;99.90
52621;DHT22;38515;53.160;6.990;2024-02-15T07:45:36;12.00;99.90
52621;DHT22;38515;53.160;6.990;2024-02-15T07:48:05;12.70;99.90
52621;DHT22;38515;53.160;6.990;2024-02-15T07:50:31;12.00;99.90
52621;DHT22;38515;53.160;6.990;2024-02-15T07:52:57;12.00;99.90
52621;DHT22;38515;53.160;6.990;2024-02-15T07:55:23;12.70;99.90
52621;DHT22;38515;53.160;6.990;2024-02-15T07:57:50;12.10;99.90
52621;DHT22;38515;53.160;6.990;2024-02-15T08:00:17;12.00;99.90
52621;DHT22;38515;53.160;6.990;2024-02-15T08:02:43;12.10;99.90
52621;DHT22;38515;53.160;6.990;2024-02-15T08:05:10;11.90;99.90
52621;DHT22;38515;53.160;6.990;2024-02-15T08:07:45;12.00;99.90
52621;DHT22;38515;53.160;6.990;2024-02-15T08:10:11;12.10;99.90
52621;DHT22;38515;53.160;6.990;2024-02-15T08:12:44;12.00;99.90
52621;DHT22;38515;53.160;6.990;2024-02-15T08:15:10;12.60;99.90
52621;DHT22;38515;53.160;6.990;2024-02-15T08:20:07;11.90;99.90
52621;DHT22;38515;53.160;6.990;2024-02-15T08:22:34;12.00;99.90
52621;DHT22;38515;53.160;6.990;2024-02-15T08:25:00;12.00;99.90
52621;DHT22;38515;53.160;6.990;2024-02-15T08:27:26;12.00;99.90
52621;DHT22;38515;53.160;6.990;2024-02-15T08:29:52;11.90;99.90
52621;DHT22;38515;53.160;6.990;2024-02-15T08:32:19;12.60;99.90
52621;DHT22;38515;53.160;6.990;2024-02-15T08:34:45;12.00;99.90
52621;DHT22;38515;53.160;6.990;2024-02-15T08:37:13;12.50;99.90
52621;DHT22;38515;53.160;6.990;2024-02-15T08:39:39;11.90;99.90
52621;DHT22;38515;53.160;6.990;2024-02-15T08:42:05;12.00;99.90
52621;DHT22;38515;53.160;6.990;2024-02-15T08:44:30;12.00;99.90
52621;DHT22;38515;53.160;6.990;2024-02-15T08:46:56;12.00;99.90
52621;DHT22;38515;53.160;6.990;2024-02-15T08:49:22;12.00;99.90
52621;DHT22;38515;53.160;6.990;2024-02-15T08:51:47;12.10;99.90
52621;DHT22;38515;53.160;6.990;2024-02-15T08:54:13;12.30;99.90
52621;DHT22;38515;53.160;6.990;2024-02-15T08:56:39;12.40;99.90
52621;DHT22;38515;53.160;6.990;2024-02-15T08:59:04;12.30;99.90
52621;DHT22;38515;53.160;6.990;2024-02-15T09:01:30;12.10;99.90
52621;DHT22;38515;53.160;6.990;2024-02-15T09:03:57;12.10;99.90
52621;DHT22;38515;53.160;6.990;2024-02-15T09:06:22;12.00;99.90
52621;DHT22;38515;53.160;6.990;2024-02-15T09:08:48;12.00;99.90
52621;DHT22;38515;53.160;6.990;2024-02-15T09:11:14;12.20;99.90
52621;DHT22;38515;53.160;6.990;2024-02-15T09:13:39;12.80;99.90
52621;DHT22;38515;53.160;6.990;2024-02-15T09:16:05;12.00;99.90
52621;DHT22;38515;53.160;6.990;2024-02-15T09:18:31;12.20;99.90
52621;DHT22;38515;53.160;6.990;2024-02-15T09:20:58;12.00;99.90
52621;DHT22;38515;53.160;6.990;2024-02-15T09:23:25;12.00;99.90
52621;DHT22;38515;53.160;6.990;2024-02-15T09:25:51;12.10;99.90
52621;DHT22;38515;53.160;6.990;2024-02-15T09:28:18;12.20;99.90
52621;DHT22;38515;53.160;6.990;2024-02-15T09:30:49;12.10;99.90
52621;DHT22;38515;53.160;6.990;2024-02-15T09:33:19;12.20;99.90
52621;DHT22;38515;53.160;6.990;2024-02-15T09:35:45;12.10;99.90
52621;DHT22;38515;53.160;6.990;2024-02-15T09:38:10;12.20;99.90
52621;DHT22;38515;53.160;6.990;2024-02-15T09:40:36;12.20;99.90
52621;DHT22;38515;53.160;6.990;2024-02-15T09:43:02;12.10;99.90
52621;DHT22;38515;53.160;6.990;2024-02-15T09:45:27;12.30;99.90
52621;DHT22;38515;53.160;6.990;2024-02-15T09:47:53;12.30;99.90
52621;DHT22;38515;53.160;6.990;2024-02-15T09:50:19;12.20;99.90
52621;DHT22;38515;53.160;6.990;2024-02-15T09:52:49;12.30;99.90
52621;DHT22;38515;53.160;6.990;2024-02-15T09:55:16;12.10;99.90
52621;DHT22;38515;53.160;6.990;2024-02-15T09:57:43;12.20;99.90
52621;DHT22;38515;53.160;6.990;2024-02-15T10:00:11;12.30;99.90
52621;DHT22;38515;53.160;6.990;2024-02-15T10:02:41;12.20;99.90
52621;DHT22;38515;53.160;6.990;2024-02-15T10:05:10;12.40;99.90
52621;DHT22;38515;53.160;6.990;2024-02-15T10:07:43;12.40;99.90
52621;DHT22;38515;53.160;6.990;2024-02-15T10:10:16;12.30;99.90
52621;DHT22;38515;53.160;6.990;2024-02-15T10:12:42;12.40;99.90
52621;DHT22;38515;53.160;6.990;2024-02-15T10:15:09;12.60;99.90
52621;DHT22;38515;53.160;6.990;2024-02-15T10:17:35;12.60;99.90
52621;DHT22;38515;53.160;6.990;2024-02-15T10:20:06;12.70;99.90
52621;DHT22;38515;53.160;6.990;2024-02-15T10:22:32;12.60;99.90
52621;DHT22;38515;53.160;6.990;2024-02-15T10:25:14;12.60;99.90
52621;DHT22;38515;53.160;6.990;2024-02-15T10:27:42;12.80;99.90
52621;DHT22;38515;53.160;6.990;2024-02-15T10:30:18;12.70;99.90
52621;DHT22;38515;53.160;6.990;2024-02-15T10:32:45;12.70;99.90
52621;DHT22;38515;53.160;6.990;2024-02-15T10:35:19;12.70;99.90
52621;DHT22;38515;53.160;6.990;2024-02-15T10:37:45;12.80;99.90
52621;DHT22;38515;53.160;6.990;2024-02-15T10:40:12;12.80;99.90
52621;DHT22;38515;53.160;6.990;2024-02-15T10:42:40;12.90;99.90
52621;DHT22;38515;53.160;6.990;2024-02-15T10:45:12;13.40;99.90
52621;DHT22;38515;53.160;6.990;2024-02-15T10:47:39;12.70;99.90
52621;DHT22;38515;53.160;6.990;2024-02-15T10:50:07;12.80;99.90
52621;DHT22;38515;53.160;6.990;2024-02-15T10:52:36;12.90;99.90
52621;DHT22;38515;53.160;6.990;2024-02-15T10:55:08;13.10;99.90
52621;DHT22;38515;53.160;6.990;2024-02-15T10:57:44;13.00;99.90
52621;DHT22;38515;53.160;6.990;2024-02-15T11:00:12;13.10;99.90
52621;DHT22;38515;53.160;6.990;2024-02-15T11:03:07;13.10;99.90
52621;DHT22;38515;53.160;6.990;2024-02-15T11:05:36;13.10;99.90
52621;DHT22;38515;53.160;6.990;2024-02-15T11:08:08;13.20;99.90
52621;DHT22;38515;53.160;6.990;2024-02-15T11:10:38;13.20;99.90
52621;DHT22;38515;53.160;6.990;2024-02-15T11:13:05;13.40;99.90
52621;DHT22;38515;53.160;6.990;2024-02-15T11:15:41;13.10;99.90
52621;DHT22;38515;53.160;6.990;2024-02-15T11:18:07;13.80;99.90
52621;DHT22;38515;53.160;6.990;2024-02-15T11:23:03;13.10;99.90
52621;DHT22;38515;53.160;6.990;2024-02-15T11:25:37;13.20;99.90
52621;DHT22;38515;53.160;6.990;2024-02-15T11:30:54;13.10;99.90
52621;DHT22;38515;53.160;6.990;2024-02-15T11:36:12;13.10;99.90
52621;DHT22;38515;53.160;6.990;2024-02-15T11:38:39;13.00;99.90
52621;DHT22;38515;53.160;6.990;2024-02-15T11:41:07;13.50;99.90
52621;DHT22;38515;53.160;6.990;2024-02-15T11:46:20;13.70;99.90
52621;DHT22;38515;53.160;6.990;2024-02-15T11:48:47;13.20;99.90
52621;DHT22;38515;53.160;6.990;2024-02-15T11:51:33;13.00;99.90
52621;DHT22;38515;53.160;6.990;2024-02-15T11:54:08;13.00;99.90
52621;DHT22;38515;53.160;6.990;2024-02-15T11:56:53;13.00;99.90
52621;DHT22;38515;53.160;6.990;2024-02-15T11:59:42;13.10;99.90
52621;DHT22;38515;53.160;6.990;2024-02-15T12:02:19;13.10;99.90
52621;DHT22;38515;53.160;6.990;2024-02-15T12:05:05;13.80;99.90
52621;DHT22;38515;53.160;6.990;2024-02-15T12:07:57;13.10;99.90
52621;DHT22;38515;53.160;6.990;2024-02-15T12:10:41;13.10;99.90
52621;DHT22;38515;53.160;6.990;2024-02-15T12:13:25;13.80;99.90
52621;DHT22;38515;53.160;6.990;2024-02-15T12:16:09;13.30;99.90
52621;DHT22;38515;53.160;6.990;2024-02-15T12:18:53;13.80;99.90
52621;DHT22;38515;53.160;6.990;2024-02-15T12:21:22;13.10;99.90
52621;DHT22;38515;53.160;6.990;2024-02-15T12:23:49;13.20;99.90
52621;DHT22;38515;53.160;6.990;2024-02-15T12:26:20;13.20;99.90
52621;DHT22;38515;53.160;6.990;2024-02-15T12:28:52;13.50;99.90
52621;DHT22;38515;53.160;6.990;2024-02-15T12:31:22;13.20;99.90
52621;DHT22;38515;53.160;6.990;2024-02-15T12:34:04;13.20;99.90
52621;DHT22;38515;53.160;6.990;2024-02-15T12:36:36;13.20;99.90
52621;DHT22;38515;53.160;6.990;2024-02-15T12:39:04;13.20;99.90
52621;DHT22;38515;53.160;6.990;2024-02-15T12:41:48;13.20;99.90
52621;DHT22;38515;53.160;6.990;2024-02-15T12:44:18;13.20;99.90
52621;DHT22;38515;53.160;6.990;2024-02-15T12:46:57;13.30;99.90
52621;DHT22;38515;53.160;6.990;2024-02-15T12:51:52;13.10;99.90
52621;DHT22;38515;53.160;6.990;2024-02-15T12:54:22;13.20;99.90
52621;DHT22;38515;53.160;6.990;2024-02-15T12:56:50;13.90;99.90
52621;DHT22;38515;53.160;6.990;2024-02-15T12:59:33;13.20;99.90
52621;DHT22;38515;53.160;6.990;2024-02-15T13:01:58;13.10;99.90
52621;DHT22;38515;53.160;6.990;2024-02-15T13:04:25;13.10;99.90
52621;DHT22;38515;53.160;6.990;2024-02-15T13:06:51;13.20;99.90
52621;DHT22;38515;53.160;6.990;2024-02-15T13:09:16;13.20;99.90
52621;DHT22;38515;53.160;6.990;2024-02-15T13:11:42;13.20;99.90
52621;DHT22;38515;53.160;6.990;2024-02-15T13:14:11;13.20;99.90
52621;DHT22;38515;53.160;6.990;2024-02-15T13:16:37;13.10;99.90
52621;DHT22;38515;53.160;6.990;2024-02-15T13:19:04;13.00;99.90
52621;DHT22;38515;53.160;6.990;2024-02-15T13:21:32;13.50;99.90
52621;DHT22;38515;53.160;6.990;2024-02-15T13:24:00;13.00;99.90
52621;DHT22;38515;53.160;6.990;2024-02-15T13:26:30;13.00;99.90
52621;DHT22;38515;53.160;6.990;2024-02-15T13:28:56;13.10;99.90
52621;DHT22;38515;53.160;6.990;2024-02-15T13:31:21;13.10;99.90
52621;DHT22;38515;53.160;6.990;2024-02-15T13:33:48;13.00;99.90
52621;DHT22;38515;53.160;6.990;2024-02-15T13:36:14;13.10;99.90
52621;DHT22;38515;53.160;6.990;2024-02-15T13:38:41;13.00;99.90
52621;DHT22;38515;53.160;6.990;2024-02-15T13:41:08;13.10;99.90
52621;DHT22;38515;53.160;6.990;2024-02-15T13:43:34;13.00;99.90
52621;DHT22;38515;53.160;6.990;2024-02-15T13:46:00;12.90;99.90
52621;DHT22;38515;53.160;6.990;2024-02-15T13:48:30;13.00;99.90
52621;DHT22;38515;53.160;6.990;2024-02-15T13:50:57;13.10;99.90
52621;DHT22;38515;53.160;6.990;2024-02-15T13:53:23;12.90;99.90
52621;DHT22;38515;53.160;6.990;2024-02-15T13:55:53;13.60;99.90
52621;DHT22;38515;53.160;6.990;2024-02-15T13:58:18;13.00;99.90
52621;DHT22;38515;53.160;6.990;2024-02-15T14:00:44;12.80;99.90
52621;DHT22;38515;53.160;6.990;2024-02-15T14:03:11;12.90;99.90
52621;DHT22;38515;53.160;6.990;2024-02-15T14:05:37;12.80;99.90
52621;DHT22;38515;53.160;6.990;2024-02-15T14:08:05;12.80;99.90
52621;DHT22;38515;53.160;6.990;2024-02-15T14:10:34;12.80;99.90
52621;DHT22;38515;53.160;6.990;2024-02-15T14:13:02;12.90;99.90
52621;DHT22;38515;53.160;6.990;2024-02-15T14:15:33;12.80;99.90
52621;DHT22;38515;53.160;6.990;2024-02-15T14:18:10;12.90;99.90
52621;DHT22;38515;53.160;6.990;2024-02-15T14:20:41;12.70;99.90
52621;DHT22;38515;53.160;6.990;2024-02-15T14:23:12;12.90;99.90
52621;DHT22;38515;53.160;6.990;2024-02-15T14:25:41;12.90;99.90
52621;DHT22;38515;53.160;6.990;2024-02-15T14:28:06;12.80;99.90
52621;DHT22;38515;53.160;6.990;2024-02-15T14:30:35;12.70;99.90
52621;DHT22;38515;53.160;6.990;2024-02-15T14:33:20;12.80;99.90
52621;DHT22;38515;53.160;6.990;2024-02-15T14:35:48;13.00;99.90
52621;DHT22;38515;53.160;6.990;2024-02-15T14:38:14;12.70;99.90
52621;DHT22;38515;53.160;6.990;2024-02-15T14:40:43;12.80;99.90
52621;DHT22;38515;53.160;6.990;2024-02-15T14:43:16;12.80;99.90
52621;DHT22;38515;53.160;6.990;2024-02-15T14:45:43;12.80;99.90
52621;DHT22;38515;53.160;6.990;2024-02-15T14:48:09;12.90;99.90
52621;DHT22;38515;53.160;6.990;2024-02-15T14:50:39;12.90;99.90
52621;DHT22;38515;53.160;6.990;2024-02-15T14:53:04;12.90;99.90
52621;DHT22;38515;53.160;6.990;2024-02-15T14:55:30;12.90;99.90
52621;DHT22;38515;53.160;6.990;2024-02-15T14:57:57;13.00;99.90
52621;DHT22;38515;53.160;6.990;2024-02-15T15:00:25;12.90;99.90
52621;DHT22;38515;53.160;6.990;2024-02-15T15:02:53;12.90;99.90
52621;DHT22;38515;53.160;6.990;2024-02-15T15:05:22;12.90;99.90
52621;DHT22;38515;53.160;6.990;2024-02-15T15:08:06;13.20;99.90
52621;DHT22;38515;53.160;6.990;2024-02-15T15:10:51;12.90;99.90
52621;DHT22;38515;53.160;6.990;2024-02-15T15:13:35;12.90;99.90
52621;DHT22;38515;53.160;6.990;2024-02-15T15:16:02;13.30;99.90
52621;DHT22;38515;53.160;6.990;2024-02-15T15:18:28;12.80;99.90
52621;DHT22;38515;53.160;6.990;2024-02-15T15:20:58;12.90;99.90
52621;DHT22;38515;53.160;6.990;2024-02-15T15:23:25;13.00;99.90
52621;DHT22;38515;53.160;6.990;2024-02-15T15:25:51;12.90;99.90
52621;DHT22;38515;53.160;6.990;2024-02-15T15:28:17;12.90;99.90
52621;DHT22;38515;53.160;6.990;2024-02-15T15:30:44;12.90;99.90
52621;DHT22;38515;53.160;6.990;2024-02-15T15:33:18;12.90;99.90
52621;DHT22;38515;53.160;6.990;2024-02-15T15:35:44;12.90;99.90
52621;DHT22;38515;53.160;6.990;2024-02-15T15:38:10;12.80;99.90
52621;DHT22;38515;53.160;6.990;2024-02-15T15:40:36;13.00;99.90
52621;DHT22;38515;53.160;6.990;2024-02-15T15:43:02;13.20;99.90
52621;DHT22;38515;53.160;6.990;2024-02-15T15:45:34;12.90;99.90
52621;DHT22;38515;53.160;6.990;2024-02-15T15:48:01;12.90;99.90
52621;DHT22;38515;53.160;6.990;2024-02-15T15:50:27;12.90;99.90
52621;DHT22;38515;53.160;6.990;2024-02-15T15:53:04;12.80;99.90